Time;durP1;ratioP1;P1;durP2;ratioP2;P2;SDS_P1;SDS_P2;PMS_P1;PMS_P2;Temp;Humidity;BMP_temperature;BMP_pressure;BME280_temperature;BME280_humidity;BME280_pressure;Samples;Min_cycle;Max_cycle;Signal;HPM_P1;HPM_P2
2020/12/15 00:01:39;;;;;;;5.05;2.83;;;;;;;6.14;90.38;100759.38;6272376;28;20128;-67
2020/12/15 00:04:42;;;;;;;3.92;2.85;;;;;;;6.03;91.31;100757.13;6272083;28;20413;-67
2020/12/15 00:07:43;;;;;;;14.95;3.20;;;;;;;6.00;92.92;100751.19;6271760;28;20132;-67
2020/12/15 00:10:44;;;;;;;4.72;2.90;;;;;;;5.99;93.28;100742.47;6271527;28;20053;-67
2020/12/15 00:13:45;;;;;;;6.95;3.20;;;;;;;6.00;92.91;100741.59;6272025;28;20052;-67
2020/12/15 00:16:46;;;;;;;4.65;3.15;;;;;;;6.06;91.55;100738.75;6271510;28;20053;-68
2020/12/15 00:19:47;;;;;;;4.15;2.97;;;;;;;5.97;92.29;100731.25;6271517;28;20517;-67
2020/12/15 00:22:48;;;;;;;6.50;3.08;;;;;;;5.94;92.78;100725.28;6270725;28;20056;-67
2020/12/15 00:25:49;;;;;;;6.43;3.70;;;;;;;5.94;92.40;100731.34;6271851;28;20049;-67
2020/12/15 00:28:51;;;;;;;7.13;4.00;;;;;;;5.97;92.42;100727.78;6271196;28;20064;-67
2020/12/15 00:31:52;;;;;;;7.10;3.65;;;;;;;5.97;92.53;100722.59;6271639;28;20103;-67
2020/12/15 00:34:52;;;;;;;5.20;2.95;;;;;;;5.99;92.31;100718.16;6271361;28;20048;-67
2020/12/15 00:37:53;;;;;;;5.75;3.75;;;;;;;5.92;92.60;100709.69;6271112;28;20510;-67
2020/12/15 00:40:55;;;;;;;5.35;3.15;;;;;;;5.92;93.24;100699.25;6271058;28;20494;-67
2020/12/15 00:43:56;;;;;;;4.50;3.08;;;;;;;5.92;93.14;100687.97;6271466;28;20048;-67
2020/12/15 00:46:56;;;;;;;6.05;3.65;;;;;;;5.89;93.01;100681.06;6271030;28;20493;-67
2020/12/15 00:49:57;;;;;;;7.78;3.40;;;;;;;5.98;92.12;100687.75;6270971;28;20045;-67
2020/12/15 00:52:58;;;;;;;4.90;3.20;;;;;;;6.04;91.88;100677.09;6271385;28;20092;-67
2020/12/15 00:56:00;;;;;;;5.32;2.97;;;;;;;6.09;90.71;100683.03;6292351;22;20053;-68
2020/12/15 00:59:01;;;;;;;4.20;3.13;;;;;;;6.01;92.49;100670.25;6270521;28;20063;-68
2020/12/15 01:02:03;;;;;;;5.75;3.28;;;;;;;6.06;91.51;100652.66;6271010;28;20053;-68
2020/12/15 01:05:04;;;;;;;6.10;3.63;;;;;;;5.98;91.02;100643.41;6270867;28;20053;-68
2020/12/15 01:08:05;;;;;;;9.77;3.50;;;;;;;6.02;89.73;100650.22;6270740;28;20064;-69
2020/12/15 01:11:07;;;;;;;5.13;2.95;;;;;;;6.09;89.80;100662.16;6270819;28;20060;-70
2020/12/15 01:14:07;;;;;;;3.85;3.00;;;;;;;6.17;88.53;100667.91;6271010;28;20513;-70
2020/12/15 01:17:09;;;;;;;5.88;3.28;;;;;;;6.22;88.33;100660.81;6270425;28;20136;-70
2020/12/15 01:20:10;;;;;;;6.72;3.60;;;;;;;6.15;89.46;100646.28;6270595;28;20041;-69
2020/12/15 01:23:11;;;;;;;5.75;3.25;;;;;;;6.15;89.44;100656.72;6270823;28;20130;-70
2020/12/15 01:26:12;;;;;;;5.35;2.97;;;;;;;6.18;88.32;100660.97;6270703;28;20493;-70
2020/12/15 01:29:13;;;;;;;5.05;2.72;;;;;;;6.21;88.49;100669.53;6270392;28;20052;-70
2020/12/15 01:32:14;;;;;;;7.85;3.60;;;;;;;6.26;88.14;100671.97;6270931;28;20053;-70
2020/12/15 01:35:18;;;;;;;6.00;3.67;;;;;;;6.20;88.88;100675.66;6273343;28;20052;-70
2020/12/15 01:38:19;;;;;;;6.88;3.35;;;;;;;6.27;88.52;100661.47;6275429;28;20425;-70
2020/12/15 01:41:21;;;;;;;6.03;3.42;;;;;;;6.39;86.71;100668.00;6275043;28;20045;-70
2020/12/15 01:44:22;;;;;;;10.60;4.70;;;;;;;6.39;87.01;100672.38;6275842;28;20052;-70
2020/12/15 01:47:23;;;;;;;10.52;4.65;;;;;;;6.47;86.76;100663.34;6275188;28;20056;-70
2020/12/15 01:50:24;;;;;;;12.45;5.28;;;;;;;6.45;87.05;100659.94;6275096;28;20049;-70
2020/12/15 01:53:25;;;;;;;10.90;4.95;;;;;;;6.53;86.30;100673.53;6275320;28;20520;-70
2020/12/15 01:56:27;;;;;;;8.50;4.15;;;;;;;6.64;85.43;100651.41;6274808;28;20609;-70
2020/12/15 01:59:29;;;;;;;13.55;4.68;;;;;;;6.56;84.62;100641.25;6274855;28;20041;-70
2020/12/15 02:02:30;;;;;;;8.80;4.43;;;;;;;6.54;85.22;100645.66;6275211;28;20056;-70
2020/12/15 02:05:30;;;;;;;11.15;4.88;;;;;;;6.56;84.54;100639.50;6274906;28;20060;-70
2020/12/15 02:08:31;;;;;;;9.07;3.88;;;;;;;6.51;84.34;100638.81;6274627;28;20049;-70
2020/12/15 02:11:34;;;;;;;6.95;4.20;;;;;;;6.44;85.46;100636.50;6274758;28;20052;-70
2020/12/15 02:14:35;;;;;;;6.95;3.42;;;;;;;6.47;85.54;100629.41;6274704;28;20052;-70
2020/12/15 02:17:36;;;;;;;5.97;3.58;;;;;;;6.53;84.71;100615.25;6274371;28;20063;-70
2020/12/15 02:20:37;;;;;;;7.18;3.42;;;;;;;6.54;84.76;100620.44;6274185;28;20052;-70
2020/12/15 02:23:39;;;;;;;10.55;3.00;;;;;;;6.63;84.90;100613.97;6274392;28;20493;-70
2020/12/15 02:26:40;;;;;;;6.75;3.78;;;;;;;6.56;84.47;100605.56;6274420;28;20049;-70
2020/12/15 02:29:41;;;;;;;6.00;3.50;;;;;;;6.60;84.45;100619.34;6273717;28;20045;-70
2020/12/15 02:32:42;;;;;;;7.35;3.65;;;;;;;6.51;85.09;100617.94;6274720;28;20096;-70
2020/12/15 02:35:43;;;;;;;5.75;3.53;;;;;;;6.52;85.68;100617.03;6273853;28;20179;-70
2020/12/15 02:38:44;;;;;;;9.55;3.70;;;;;;;6.53;86.38;100617.88;6273857;28;20053;-70
2020/12/15 02:41:52;;;;;;;9.15;4.20;;;;;;;6.55;86.13;100623.91;6274138;28;20048;-70
2020/12/15 02:44:53;;;;;;;7.55;4.00;;;;;;;6.49;86.33;100624.13;6274369;28;20555;-70
2020/12/15 02:47:54;;;;;;;6.50;3.50;;;;;;;6.54;85.21;100625.66;6273085;28;20132;-69
2020/12/15 02:50:54;;;;;;;5.07;3.30;;;;;;;6.56;86.06;100625.59;6273763;28;20132;-68
2020/12/15 02:53:56;;;;;;;8.43;3.50;;;;;;;6.53;85.92;100620.47;6274005;28;20068;-68
2020/12/15 02:56:57;;;;;;;8.18;3.60;;;;;;;6.47;86.07;100621.56;6273322;28;20053;-68
2020/12/15 02:59:58;;;;;;;7.63;3.67;;;;;;;6.40;86.69;100619.25;6273475;28;20051;-68
2020/12/15 03:02:59;;;;;;;4.70;2.83;;;;;;;6.48;86.31;100627.63;6273725;28;20053;-68
2020/12/15 03:05:59;;;;;;;7.32;3.50;;;;;;;6.40;86.94;100620.09;6273058;28;20088;-68
2020/12/15 03:09:01;;;;;;;5.40;3.25;;;;;;;6.39;87.12;100623.63;6273295;28;20053;-70
2020/12/15 03:12:03;;;;;;;6.30;3.50;;;;;;;6.39;86.91;100630.59;6273432;28;20045;-69
2020/12/15 03:15:04;;;;;;;4.15;2.85;;;;;;;6.38;86.59;100624.53;6273524;28;20052;-68
2020/12/15 03:18:05;;;;;;;5.47;3.10;;;;;;;6.33;87.52;100629.09;6273181;28;20056;-68
2020/12/15 03:21:08;;;;;;;5.10;3.25;;;;;;;6.33;88.52;100635.16;6272563;28;20045;-68
2020/12/15 03:24:09;;;;;;;5.38;2.80;;;;;;;6.31;88.30;100638.72;6273122;28;20071;-70
2020/12/15 03:27:10;;;;;;;4.95;2.83;;;;;;;6.34;88.11;100633.38;6272981;28;20049;-70
2020/12/15 03:30:11;;;;;;;3.17;2.50;;;;;;;6.33;89.23;100632.53;6272735;28;20060;-68
2020/12/15 03:33:12;;;;;;;4.43;2.83;;;;;;;6.37;88.96;100640.25;6272975;28;20052;-68
2020/12/15 03:36:13;;;;;;;4.75;3.05;;;;;;;6.40;88.67;100633.13;6272589;28;20060;-69
2020/12/15 03:39:15;;;;;;;4.13;2.75;;;;;;;6.41;89.12;100642.69;6272637;28;20049;-68
2020/12/15 03:42:15;;;;;;;4.10;2.80;;;;;;;6.39;88.57;100641.88;6270130;28;20045;-68
2020/12/15 03:45:17;;;;;;;4.85;2.88;;;;;;;6.38;89.88;100649.78;6272557;28;20060;-68
2020/12/15 03:48:18;;;;;;;3.88;2.70;;;;;;;6.39;90.38;100647.09;6272445;28;20052;-68
2020/12/15 03:51:19;;;;;;;6.07;3.33;;;;;;;6.33;91.07;100653.41;6272013;28;20040;-68
2020/12/15 03:54:20;;;;;;;3.75;2.30;;;;;;;6.28;92.20;100651.91;6272478;28;20555;-68
2020/12/15 03:57:21;;;;;;;3.38;2.50;;;;;;;6.27;92.27;100647.59;6271198;28;20086;-69
2020/12/15 04:00:22;;;;;;;4.63;3.13;;;;;;;6.21;93.41;100645.19;6271925;28;20052;-68
2020/12/15 04:03:23;;;;;;;3.97;3.10;;;;;;;6.18;93.19;100651.38;6272096;28;20124;-68
2020/12/15 04:06:24;;;;;;;3.80;3.15;;;;;;;6.18;93.42;100661.81;6272024;28;20076;-68
2020/12/15 04:09:26;;;;;;;4.53;3.22;;;;;;;6.13;95.05;100657.66;6271997;28;20101;-68
2020/12/15 04:12:26;;;;;;;5.00;3.50;;;;;;;6.06;96.02;100657.88;6271984;28;20497;-68
2020/12/15 04:15:27;;;;;;;4.53;3.30;;;;;;;6.07;97.24;100659.59;6272012;28;20044;-68
2020/12/15 04:18:28;;;;;;;4.85;3.38;;;;;;;6.00;97.26;100663.34;6271680;28;20520;-68
2020/12/15 04:21:29;;;;;;;6.75;4.22;;;;;;;5.99;97.96;100661.59;6271590;28;20456;-68
2020/12/15 04:24:31;;;;;;;5.72;4.25;;;;;;;5.95;98.60;100654.84;6271934;28;20049;-68
2020/12/15 04:27:32;;;;;;;6.68;4.53;;;;;;;5.94;99.23;100658.31;6271442;28;20449;-68
2020/12/15 04:30:32;;;;;;;5.72;4.25;;;;;;;5.92;99.11;100654.94;6271385;28;20053;-68
2020/12/15 04:33:33;;;;;;;6.60;5.25;;;;;;;5.92;99.69;100649.72;6271485;28;20041;-68
2020/12/15 04:36:34;;;;;;;5.85;4.63;;;;;;;5.89;99.97;100665.44;6271391;28;20075;-68
2020/12/15 04:39:36;;;;;;;6.10;4.28;;;;;;;5.90;100.00;100663.66;6271023;28;20524;-68
2020/12/15 04:42:37;;;;;;;8.02;5.10;;;;;;;5.86;100.00;100665.56;6271554;28;20078;-68
2020/12/15 04:45:38;;;;;;;7.32;5.22;;;;;;;5.84;100.00;100662.97;6271319;28;20049;-68
2020/12/15 04:48:44;;;;;;;8.52;4.80;;;;;;;5.84;100.00;100670.81;6270949;28;20477;-68
2020/12/15 04:51:57;;;;;;;8.32;5.22;;;;;;;5.82;100.00;100667.41;6271442;28;20136;-68
2020/12/15 04:55:00;;;;;;;8.43;5.30;;;;;;;5.83;100.00;100657.84;6271306;28;20157;-68
2020/12/15 04:58:02;;;;;;;6.55;4.88;;;;;;;5.81;100.00;100644.84;6270888;28;20056;-69
2020/12/15 05:01:02;;;;;;;6.72;4.82;;;;;;;5.85;100.00;100640.34;6270884;28;20045;-68
2020/12/15 05:04:03;;;;;;;10.05;4.88;;;;;;;5.83;100.00;100636.97;6270751;28;20053;-68
2020/12/15 05:07:06;;;;;;;6.75;4.90;;;;;;;5.79;100.00;100633.59;6270976;28;20053;-68
2020/12/15 05:10:09;;;;;;;7.30;5.15;;;;;;;5.79;100.00;100637.97;6270401;28;20048;-68
2020/12/15 05:13:10;;;;;;;15.80;5.30;;;;;;;5.79;100.00;100646.66;6270953;28;20456;-68
2020/12/15 05:16:10;;;;;;;8.15;4.60;;;;;;;5.81;100.00;100644.84;6270765;28;20061;-68
2020/12/15 05:19:11;;;;;;;7.95;5.20;;;;;;;5.90;100.00;100641.03;6270715;28;20126;-69
2020/12/15 05:22:12;;;;;;;7.13;4.75;;;;;;;5.84;100.00;100649.94;6271101;28;20052;-68
2020/12/15 05:25:24;;;;;;;7.32;4.78;;;;;;;5.83;100.00;100658.69;6270767;28;20053;-68
2020/12/15 05:28:25;;;;;;;5.32;4.05;;;;;;;5.84;100.00;100664.75;6270932;28;20514;-68
2020/12/15 05:31:27;;;;;;;8.85;4.78;;;;;;;5.84;100.00;100667.34;6270318;28;20053;-68
2020/12/15 05:34:28;;;;;;;8.85;4.85;;;;;;;5.85;100.00;100656.84;6270659;28;20045;-68
2020/12/15 05:37:29;;;;;;;7.07;4.57;;;;;;;5.85;100.00;100662.06;6270471;28;20055;-68
2020/12/15 05:40:32;;;;;;;10.55;4.80;;;;;;;5.85;100.00;100662.06;6270290;28;20072;-68
2020/12/15 05:43:33;;;;;;;9.32;5.10;;;;;;;5.89;100.00;100659.38;6270642;28;20053;-68
2020/12/15 05:46:36;;;;;;;10.70;5.20;;;;;;;5.88;100.00;100663.72;6269912;28;20041;-68
2020/12/15 05:49:40;;;;;;;8.55;5.43;;;;;;;5.89;100.00;100657.59;6267947;28;20052;-68
2020/12/15 05:52:41;;;;;;;13.82;5.65;;;;;;;5.86;100.00;100660.34;6261033;28;20045;-68
2020/12/15 05:55:43;;;;;;;8.18;5.57;;;;;;;5.85;100.00;100651.63;6262541;28;20052;-68
2020/12/15 05:58:52;;;;;;;7.00;5.05;;;;;;;5.91;100.00;100647.13;6249481;28;20482;-69
2020/12/15 06:01:54;;;;;;;11.23;5.95;;;;;;;5.87;100.00;100651.59;6256075;28;20056;-68
2020/12/15 06:04:55;;;;;;;7.82;5.38;;;;;;;5.90;100.00;100650.63;6262277;28;20048;-68
2020/12/15 06:07:57;;;;;;;7.80;5.50;;;;;;;5.90;100.00;100653.22;6259553;28;20053;-68
2020/12/15 06:11:01;;;;;;;6.68;5.00;;;;;;;5.90;100.00;100651.47;6247815;28;20057;-70
2020/12/15 06:14:02;;;;;;;7.00;4.70;;;;;;;6.01;100.00;100652.00;6245637;28;20064;-67
2020/12/15 06:17:02;;;;;;;8.20;4.25;;;;;;;6.20;100.00;100652.16;6245114;28;20131;-68
2020/12/15 06:20:03;;;;;;;7.45;4.97;;;;;;;6.09;99.46;100646.50;6245292;28;20045;-68
2020/12/15 06:23:09;;;;;;;8.75;5.03;;;;;;;6.18;99.65;100653.16;6264924;28;20079;-70
2020/12/15 06:26:11;;;;;;;7.72;5.45;;;;;;;6.12;99.46;100658.56;6273535;28;20045;-68
2020/12/15 06:29:12;;;;;;;6.97;5.00;;;;;;;6.13;99.76;100661.13;6272420;28;20079;-68
2020/12/15 06:32:17;;;;;;;7.30;4.97;;;;;;;6.10;100.00;100672.53;6273049;28;20044;-68
2020/12/15 06:35:24;;;;;;;6.93;4.97;;;;;;;6.15;99.60;100674.13;6274434;28;20060;-71
2020/12/15 06:38:25;;;;;;;7.20;5.43;;;;;;;6.08;100.00;100676.09;6274183;28;20052;-67
2020/12/15 06:41:28;;;;;;;8.63;5.35;;;;;;;6.12;100.00;100682.03;6273870;28;20482;-68
2020/12/15 06:44:33;;;;;;;8.95;5.65;;;;;;;6.04;100.00;100685.81;6273870;28;20048;-67
2020/12/15 06:47:35;;;;;;;9.52;5.88;;;;;;;6.04;100.00;100687.53;6273724;28;20057;-69
2020/12/15 06:50:43;;;;;;;9.70;6.25;;;;;;;6.03;100.00;100691.91;6273808;28;20045;-67
2020/12/15 06:53:44;;;;;;;9.77;5.88;;;;;;;6.07;100.00;100684.81;6274043;28;20123;-67
2020/12/15 06:57:00;;;;;;;11.15;5.57;;;;;;;6.02;100.00;100692.81;6273405;28;20456;-69
2020/12/15 07:00:07;;;;;;;12.40;6.75;;;;;;;5.97;100.00;100704.31;6273430;28;20044;-69
2020/12/15 07:03:08;;;;;;;8.18;5.90;;;;;;;5.95;100.00;100693.06;6273197;28;20052;-67
2020/12/15 07:06:12;;;;;;;9.18;6.40;;;;;;;5.93;100.00;100698.34;6273695;28;20057;-66
2020/12/15 07:09:13;;;;;;;8.98;5.63;;;;;;;5.95;100.00;100704.38;6269100;28;20057;-66
2020/12/15 07:12:16;;;;;;;10.20;6.78;;;;;;;5.96;100.00;100708.69;6255368;28;20517;-66
2020/12/15 07:15:19;;;;;;;8.40;6.45;;;;;;;5.97;100.00;100699.94;6261692;28;20057;-66
2020/12/15 07:18:19;;;;;;;10.02;6.28;;;;;;;5.92;100.00;100704.47;6273110;28;20413;-66
2020/12/15 07:21:23;;;;;;;10.20;7.15;;;;;;;5.99;100.00;100715.53;6272930;28;20051;-66
2020/12/15 07:24:25;;;;;;;20.27;9.38;;;;;;;6.00;100.00;100714.66;6273333;28;20055;-66
2020/12/15 07:27:27;;;;;;;11.38;7.03;;;;;;;5.96;100.00;100723.50;6272855;28;20183;-69
2020/12/15 07:30:28;;;;;;;10.55;6.38;;;;;;;6.05;100.00;100724.03;6272470;28;20136;-67
2020/12/15 07:33:29;;;;;;;8.18;5.90;;;;;;;6.04;100.00;100724.06;6272590;28;20049;-67
2020/12/15 07:36:31;;;;;;;14.80;7.75;;;;;;;6.03;100.00;100720.59;6272489;28;20071;-67
2020/12/15 07:39:32;;;;;;;17.67;11.45;;;;;;;6.01;100.00;100727.63;6272533;28;20064;-67
2020/12/15 07:42:33;;;;;;;11.70;7.60;;;;;;;6.03;100.00;100733.63;6272622;28;20049;-67
2020/12/15 07:45:35;;;;;;;11.95;7.63;;;;;;;6.12;100.00;100716.81;6272742;28;20490;-68
2020/12/15 07:48:37;;;;;;;9.95;6.32;;;;;;;6.10;100.00;100718.63;6271986;28;20490;-66
2020/12/15 07:51:38;;;;;;;13.45;7.43;;;;;;;6.07;100.00;100729.16;6272517;28;20052;-66
2020/12/15 07:54:39;;;;;;;12.05;7.03;;;;;;;6.19;100.00;100722.69;6272441;28;20049;-65
2020/12/15 07:57:42;;;;;;;10.75;6.88;;;;;;;6.19;100.00;100730.50;6271527;28;20531;-65
2020/12/15 08:00:43;;;;;;;9.02;6.40;;;;;;;6.13;100.00;100735.94;6271458;28;20071;-66
2020/12/15 08:03:44;;;;;;;11.80;6.63;;;;;;;6.13;100.00;100728.09;6271408;28;20073;-67
2020/12/15 08:06:47;;;;;;;9.02;6.90;;;;;;;6.18;100.00;100721.00;6270101;28;20095;-67
2020/12/15 08:09:50;;;;;;;13.30;6.68;;;;;;;6.16;100.00;100717.56;6270062;28;20132;-67
2020/12/15 08:12:52;;;;;;;9.93;6.80;;;;;;;6.16;100.00;100718.41;6271971;28;20103;-67
2020/12/15 08:15:53;;;;;;;12.68;6.70;;;;;;;6.17;100.00;100720.09;6271568;28;20053;-67
2020/12/15 08:18:59;;;;;;;11.45;6.90;;;;;;;6.19;100.00;100715.69;6271697;28;20045;-67
2020/12/15 08:22:00;;;;;;;14.40;8.00;;;;;;;6.19;100.00;100720.06;6271853;28;20056;-67
2020/12/15 08:25:03;;;;;;;11.00;7.38;;;;;;;6.20;100.00;100732.22;6272077;28;20101;-67
2020/12/15 08:28:09;;;;;;;11.02;8.10;;;;;;;6.19;100.00;100725.28;6271539;28;20079;-67
2020/12/15 08:31:10;;;;;;;12.57;7.75;;;;;;;6.22;100.00;100740.81;6270683;28;20041;-66
2020/12/15 08:34:13;;;;;;;18.05;8.98;;;;;;;6.23;100.00;100747.75;6271372;28;20124;-66
2020/12/15 08:37:14;;;;;;;12.88;8.85;;;;;;;6.26;100.00;100745.03;6271291;28;20056;-67
2020/12/15 08:40:15;;;;;;;14.02;8.70;;;;;;;6.29;100.00;100755.38;6271192;28;20040;-66
2020/12/15 08:43:16;;;;;;;13.70;9.13;;;;;;;6.51;100.00;100747.63;6270763;28;20413;-66
2020/12/15 08:46:19;;;;;;;11.88;8.02;;;;;;;6.47;100.00;100743.41;6271095;28;20060;-68
2020/12/15 08:49:20;;;;;;;12.95;8.10;;;;;;;6.43;100.00;100758.31;6257011;28;20041;-67
2020/12/15 08:52:22;;;;;;;10.88;7.03;;;;;;;6.46;100.00;100762.59;6261610;28;20044;-68
2020/12/15 08:55:26;;;;;;;11.45;7.40;;;;;;;6.56;100.00;100751.75;6256210;28;20041;-68
2020/12/15 08:58:28;;;;;;;12.20;8.35;;;;;;;6.67;100.00;100748.75;6257318;28;20053;-68
2020/12/15 09:01:29;;;;;;;11.32;8.00;;;;;;;6.63;100.00;100749.75;6255948;28;20517;-67
2020/12/15 09:04:30;;;;;;;15.65;9.00;;;;;;;6.63;100.00;100752.38;6257153;28;20041;-68
2020/12/15 09:07:31;;;;;;;16.23;10.02;;;;;;;6.69;100.00;100764.38;6268716;28;20056;-69
2020/12/15 09:10:32;;;;;;;13.88;8.85;;;;;;;6.68;100.00;100760.91;6271037;28;20049;-68
2020/12/15 09:13:34;;;;;;;13.18;8.27;;;;;;;6.61;100.00;100765.50;6271079;28;20705;-67
2020/12/15 09:16:37;;;;;;;15.98;8.32;;;;;;;6.75;100.00;100778.03;6268589;28;20045;-70
2020/12/15 09:19:40;;;;;;;13.15;8.68;;;;;;;6.75;100.00;100769.34;6270531;28;20596;-72
2020/12/15 09:22:42;;;;;;;16.77;9.30;;;;;;;6.74;100.00;100773.72;6254882;28;20399;-70
2020/12/15 09:25:43;;;;;;;13.05;8.73;;;;;;;6.74;100.00;100767.66;6252784;28;20459;-71
2020/12/15 09:28:45;;;;;;;15.73;9.57;;;;;;;6.84;100.00;100769.88;6267240;28;20045;-70
2020/12/15 09:31:53;;;;;;;15.55;9.70;;;;;;;6.82;100.00;100773.47;6270565;28;20080;-69
2020/12/15 09:34:54;;;;;;;16.73;10.60;;;;;;;6.85;100.00;100771.56;6270427;28;20690;-71
2020/12/15 09:37:55;;;;;;;14.38;9.90;;;;;;;6.91;100.00;100775.72;6290590;28;20045;-72
2020/12/15 09:40:55;;;;;;;14.07;9.65;;;;;;;7.07;100.00;100762.91;6290680;28;20136;-70
2020/12/15 09:43:57;;;;;;;16.63;10.25;;;;;;;7.10;100.00;100763.66;6267265;28;20053;-69
2020/12/15 09:46:58;;;;;;;19.42;11.00;;;;;;;7.07;100.00;100765.53;6269222;28;20049;-71
2020/12/15 09:50:01;;;;;;;17.80;10.10;;;;;;;7.15;100.00;100755.63;6269399;28;20044;-70
2020/12/15 09:53:02;;;;;;;17.70;10.90;;;;;;;7.09;100.00;100759.34;6268961;28;20075;-70
2020/12/15 09:56:02;;;;;;;16.95;10.85;;;;;;;7.27;100.00;100760.38;6269986;28;20053;-70
2020/12/15 09:59:04;;;;;;;15.20;11.05;;;;;;;7.22;100.00;100759.72;6274562;28;20080;-70
2020/12/15 10:02:05;;;;;;;17.83;10.70;;;;;;;7.27;100.00;100759.53;6274347;28;20045;-72
2020/12/15 10:05:06;;;;;;;19.15;11.23;;;;;;;7.26;100.00;100755.19;6274959;28;20090;-75
2020/12/15 10:08:11;;;;;;;17.85;11.23;;;;;;;7.27;100.00;100763.00;6274380;28;20063;-74
2020/12/15 10:11:16;;;;;;;17.67;10.75;;;;;;;7.26;100.00;100770.88;6274552;28;20049;-74
2020/12/15 10:14:17;;;;;;;19.30;12.02;;;;;;;7.46;100.00;100770.13;6274469;28;20122;-72
2020/12/15 10:17:19;;;;;;;20.25;12.77;;;;;;;7.38;100.00;100766.03;6274266;28;20053;-70
2020/12/15 10:20:19;;;;;;;18.27;12.10;;;;;;;7.36;100.00;100764.41;6272619;28;20543;-72
2020/12/15 10:23:20;;;;;;;18.65;11.73;;;;;;;7.33;100.00;100752.28;6270010;28;20049;-71
2020/12/15 10:26:22;;;;;;;19.83;12.18;;;;;;;7.33;100.00;100746.22;6280734;28;20056;-70
2020/12/15 10:29:29;;;;;;;16.77;11.43;;;;;;;7.34;100.00;100756.59;6298524;28;20631;-74
2020/12/15 10:32:30;;;;;;;19.00;13.02;;;;;;;7.37;100.00;100758.25;6274174;28;20132;-71
2020/12/15 10:35:30;;;;;;;18.90;11.63;;;;;;;7.33;100.00;100760.13;6273911;28;20521;-71
2020/12/15 10:38:32;;;;;;;17.80;11.77;;;;;;;7.42;100.00;100763.31;6273853;28;20056;-71
2020/12/15 10:41:36;;;;;;;17.70;11.75;;;;;;;7.33;100.00;100767.97;6273568;28;20045;-70
2020/12/15 10:44:38;;;;;;;19.33;12.63;;;;;;;7.30;100.00;100764.63;6274311;28;20052;-69
2020/12/15 10:47:39;;;;;;;22.63;13.68;;;;;;;7.32;100.00;100763.66;6273358;28;20056;-73
2020/12/15 10:50:40;;;;;;;21.77;13.65;;;;;;;7.46;100.00;100770.97;6273615;28;20045;-73
2020/12/15 10:53:41;;;;;;;17.35;11.65;;;;;;;7.63;100.00;100775.53;6273300;28;20417;-70
2020/12/15 10:56:42;;;;;;;20.42;12.93;;;;;;;7.41;100.00;100782.53;6283450;28;20080;-72
2020/12/15 10:59:44;;;;;;;19.50;12.63;;;;;;;7.35;100.00;100787.06;6272938;28;20059;-70
2020/12/15 11:02:45;;;;;;;21.58;12.30;;;;;;;7.33;100.00;100798.50;6273770;28;20456;-71
2020/12/15 11:05:46;;;;;;;20.23;12.57;;;;;;;7.40;100.00;100786.88;6273632;28;20102;-71
2020/12/15 11:08:47;;;;;;;19.33;12.32;;;;;;;7.41;100.00;100791.22;6272387;28;20049;-71
2020/12/15 11:11:48;;;;;;;17.40;12.10;;;;;;;7.40;100.00;100792.09;6273131;28;20053;-74
2020/12/15 11:14:50;;;;;;;18.70;12.45;;;;;;;7.37;100.00;100806.16;6273383;28;20516;-72
2020/12/15 11:17:50;;;;;;;18.75;11.55;;;;;;;7.51;100.00;100804.78;6272581;28;20052;-72
2020/12/15 11:20:51;;;;;;;20.33;12.38;;;;;;;7.44;100.00;100803.28;6272741;28;20053;-71
2020/12/15 11:23:52;;;;;;;16.85;11.43;;;;;;;7.50;100.00;100810.91;6273411;28;20099;-71
2020/12/15 11:26:53;;;;;;;19.45;12.07;;;;;;;7.61;100.00;100796.47;6272555;28;20095;-71
2020/12/15 11:29:55;;;;;;;19.98;12.07;;;;;;;7.54;100.00;100802.91;6272771;28;20102;-70
2020/12/15 11:32:56;;;;;;;18.15;11.93;;;;;;;7.71;100.00;100798.72;6273035;28;20052;-69
2020/12/15 11:35:57;;;;;;;19.05;12.02;;;;;;;7.55;100.00;100811.59;6272685;28;20493;-71
2020/12/15 11:38:58;;;;;;;17.83;11.45;;;;;;;7.48;100.00;100812.72;6272742;28;20049;-71
2020/12/15 11:41:59;;;;;;;15.75;11.25;;;;;;;7.55;100.00;100807.19;6272561;28;20099;-71
2020/12/15 11:45:00;;;;;;;17.83;12.07;;;;;;;7.43;100.00;100807.69;6273116;28;20049;-72
2020/12/15 11:48:01;;;;;;;17.77;11.25;;;;;;;7.41;100.00;100811.28;6272237;28;20424;-72
2020/12/15 11:51:02;;;;;;;16.70;11.15;;;;;;;7.40;100.00;100807.78;6272411;28;20060;-72
2020/12/15 11:54:03;;;;;;;23.35;12.50;;;;;;;7.45;100.00;100807.59;6272478;28;20057;-70
2020/12/15 11:57:04;;;;;;;18.30;12.35;;;;;;;7.37;100.00;100803.53;6271538;28;20072;-72
2020/12/15 12:00:08;;;;;;;18.60;12.55;;;;;;;7.46;100.00;100799.72;6271172;28;20045;-72
2020/12/15 12:03:09;;;;;;;20.35;12.68;;;;;;;7.45;100.00;100805.00;6272281;28;20051;-72
2020/12/15 12:06:10;;;;;;;19.85;12.57;;;;;;;7.40;100.00;100805.16;6270337;28;20494;-69
2020/12/15 12:09:10;;;;;;;19.40;12.45;;;;;;;7.52;100.00;100802.09;6270417;28;20052;-70
2020/12/15 12:12:11;;;;;;;18.90;12.10;;;;;;;7.46;100.00;100797.09;6272322;28;20057;-70
2020/12/15 12:15:13;;;;;;;20.63;13.20;;;;;;;7.38;100.00;100807.00;6271909;28;20057;-69
2020/12/15 12:18:14;;;;;;;22.38;13.05;;;;;;;7.33;100.00;100801.97;6271375;28;20049;-70
2020/12/15 12:21:14;;;;;;;23.17;12.85;;;;;;;7.42;100.00;100803.38;6271456;28;20115;-70
2020/12/15 12:24:15;;;;;;;22.13;12.35;;;;;;;7.40;100.00;100805.16;6271440;28;20079;-71
2020/12/15 12:27:16;;;;;;;19.83;11.95;;;;;;;7.37;100.00;100806.16;6247386;28;20052;-71
2020/12/15 12:30:18;;;;;;;21.13;11.93;;;;;;;7.30;100.00;100811.69;6260735;28;20049;-71
2020/12/15 12:33:19;;;;;;;21.98;12.73;;;;;;;7.34;100.00;100808.88;6260520;28;20061;-70
2020/12/15 12:36:20;;;;;;;23.30;14.02;;;;;;;7.42;100.00;100807.75;6246572;28;20049;-70
2020/12/15 12:39:20;;;;;;;25.27;13.32;;;;;;;7.41;100.00;100799.06;6266957;28;20052;-70
2020/12/15 12:42:21;;;;;;;25.70;13.63;;;;;;;7.34;100.00;100813.25;6271387;28;20044;-70
2020/12/15 12:45:23;;;;;;;23.75;14.00;;;;;;;7.33;100.00;100807.19;6271275;28;20053;-70
2020/12/15 12:48:24;;;;;;;23.25;13.82;;;;;;;7.33;100.00;100807.19;6271245;28;20057;-71
2020/12/15 12:51:28;;;;;;;25.67;15.32;;;;;;;7.40;100.00;100812.16;6271235;28;20458;-73
2020/12/15 12:54:29;;;;;;;23.73;14.30;;;;;;;7.41;100.00;100809.50;6271383;28;20056;-71
2020/12/15 12:57:30;;;;;;;24.77;12.95;;;;;;;7.35;100.00;100820.19;6270875;28;20048;-70
2020/12/15 13:00:31;;;;;;;24.20;14.35;;;;;;;7.32;100.00;100807.25;6270686;28;20041;-71
2020/12/15 13:03:33;;;;;;;24.23;14.77;;;;;;;7.35;100.00;100807.97;6271187;28;20053;-72
2020/12/15 13:06:34;;;;;;;22.58;14.52;;;;;;;7.43;100.00;100817.28;6271005;28;20053;-73
2020/12/15 13:09:34;;;;;;;23.90;14.43;;;;;;;7.37;100.00;100813.16;6270799;28;20060;-71
2020/12/15 13:12:35;;;;;;;21.75;14.40;;;;;;;7.38;100.00;100818.31;6271035;28;20079;-73
2020/12/15 13:15:40;;;;;;;26.42;14.85;;;;;;;7.31;100.00;100814.25;6270996;28;20471;-72
2020/12/15 13:18:41;;;;;;;24.83;14.43;;;;;;;7.28;100.00;100814.38;6270481;28;20148;-72
2020/12/15 13:21:42;;;;;;;25.42;15.13;;;;;;;7.27;100.00;100817.91;6270906;28;20049;-71
2020/12/15 13:24:43;;;;;;;25.50;15.35;;;;;;;7.30;100.00;100822.13;6271015;28;20060;-71
2020/12/15 13:27:44;;;;;;;24.95;14.93;;;;;;;7.28;100.00;100822.19;6270661;28;20056;-71
2020/12/15 13:30:45;;;;;;;28.70;16.70;;;;;;;7.30;100.00;100830.81;6272358;28;20433;-70
2020/12/15 13:33:46;;;;;;;29.92;15.75;;;;;;;7.33;100.00;100825.50;6276017;28;20494;-72
2020/12/15 13:36:47;;;;;;;22.58;14.07;;;;;;;7.31;100.00;100832.56;6275362;28;20049;-72
2020/12/15 13:39:48;;;;;;;25.33;14.85;;;;;;;7.30;100.00;100827.38;6275350;28;20049;-69
2020/12/15 13:42:49;;;;;;;27.40;16.42;;;;;;;7.31;100.00;100827.31;6275036;28;20045;-70
2020/12/15 13:45:50;;;;;;;24.15;15.57;;;;;;;7.32;100.00;100826.41;6275660;28;20056;-69
2020/12/15 13:48:51;;;;;;;32.63;16.40;;;;;;;7.38;100.00;100839.22;6275036;28;20114;-70
2020/12/15 13:51:52;;;;;;;27.67;14.82;;;;;;;7.41;100.00;100832.19;6275732;28;20048;-69
2020/12/15 13:54:54;;;;;;;27.35;15.60;;;;;;;7.33;100.00;100835.09;6275261;28;20057;-69
2020/12/15 13:57:54;;;;;;;30.77;14.65;;;;;;;7.29;100.00;100836.13;6274519;28;20052;-69
2020/12/15 14:00:56;;;;;;;26.88;15.75;;;;;;;7.26;100.00;100850.16;6274615;28;20045;-71